sensor_id;sensor_type;location;lat;lon;timestamp;P1;durP1;ratioP1;P2;durP2;ratioP2
27666;SDS011;15074;50.940;5.282;2023-10-31T00:01:03;8.00;;;3.80;;
27666;SDS011;15074;50.940;5.282;2023-10-31T00:03:29;4.82;;;4.18;;
27666;SDS011;15074;50.940;5.282;2023-10-31T00:05:55;4.40;;;4.00;;
27666;SDS011;15074;50.940;5.282;2023-10-31T00:08:21;5.78;;;4.82;;
27666;SDS011;15074;50.940;5.282;2023-10-31T00:10:47;5.65;;;5.13;;
27666;SDS011;15074;50.940;5.282;2023-10-31T00:13:12;5.85;;;5.22;;
27666;SDS011;15074;50.940;5.282;2023-10-31T00:15:38;8.45;;;5.45;;
27666;SDS011;15074;50.940;5.282;2023-10-31T00:18:04;7.30;;;6.05;;
27666;SDS011;15074;50.940;5.282;2023-10-31T00:20:29;6.55;;;5.53;;
27666;SDS011;15074;50.940;5.282;2023-10-31T00:22:55;8.23;;;6.43;;
27666;SDS011;15074;50.940;5.282;2023-10-31T00:25:21;8.40;;;6.18;;
27666;SDS011;15074;50.940;5.282;2023-10-31T00:27:46;7.53;;;5.82;;
27666;SDS011;15074;50.940;5.282;2023-10-31T00:30:12;8.02;;;7.05;;
27666;SDS011;15074;50.940;5.282;2023-10-31T00:32:38;10.25;;;7.40;;
27666;SDS011;15074;50.940;5.282;2023-10-31T00:35:03;10.98;;;8.35;;
27666;SDS011;15074;50.940;5.282;2023-10-31T00:37:29;14.95;;;9.65;;
27666;SDS011;15074;50.940;5.282;2023-10-31T00:39:55;17.10;;;11.80;;
27666;SDS011;15074;50.940;5.282;2023-10-31T00:42:21;18.10;;;12.90;;
27666;SDS011;15074;50.940;5.282;2023-10-31T00:44:46;17.88;;;13.18;;
27666;SDS011;15074;50.940;5.282;2023-10-31T00:47:12;30.52;;;15.15;;
27666;SDS011;15074;50.940;5.282;2023-10-31T00:49:38;35.28;;;15.82;;
27666;SDS011;15074;50.940;5.282;2023-10-31T00:52:03;32.25;;;16.48;;
27666;SDS011;15074;50.940;5.282;2023-10-31T00:54:29;32.70;;;15.93;;
27666;SDS011;15074;50.940;5.282;2023-10-31T00:56:55;36.28;;;16.98;;
27666;SDS011;15074;50.940;5.282;2023-10-31T00:59:20;37.03;;;15.45;;
27666;SDS011;15074;50.940;5.282;2023-10-31T01:01:46;34.58;;;16.70;;
27666;SDS011;15074;50.940;5.282;2023-10-31T01:04:11;27.33;;;14.88;;
27666;SDS011;15074;50.940;5.282;2023-10-31T01:06:43;31.83;;;16.42;;
27666;SDS011;15074;50.940;5.282;2023-10-31T01:09:09;22.15;;;14.27;;
27666;SDS011;15074;50.940;5.282;2023-10-31T01:11:35;28.33;;;15.90;;
27666;SDS011;15074;50.940;5.282;2023-10-31T01:14:01;28.45;;;15.80;;
27666;SDS011;15074;50.940;5.282;2023-10-31T01:16:27;27.35;;;15.30;;
27666;SDS011;15074;50.940;5.282;2023-10-31T01:18:52;28.63;;;15.00;;
27666;SDS011;15074;50.940;5.282;2023-10-31T01:21:18;20.20;;;14.15;;
27666;SDS011;15074;50.940;5.282;2023-10-31T01:23:43;29.00;;;14.80;;
27666;SDS011;15074;50.940;5.282;2023-10-31T01:26:09;21.15;;;13.77;;
27666;SDS011;15074;50.940;5.282;2023-10-31T01:28:35;22.85;;;15.02;;
27666;SDS011;15074;50.940;5.282;2023-10-31T01:31:00;19.27;;;13.75;;
27666;SDS011;15074;50.940;5.282;2023-10-31T01:33:26;26.05;;;13.00;;
27666;SDS011;15074;50.940;5.282;2023-10-31T01:35:51;16.63;;;12.43;;
27666;SDS011;15074;50.940;5.282;2023-10-31T01:38:17;16.40;;;11.95;;
27666;SDS011;15074;50.940;5.282;2023-10-31T01:40:43;19.88;;;12.43;;
27666;SDS011;15074;50.940;5.282;2023-10-31T01:43:08;15.50;;;12.23;;
27666;SDS011;15074;50.940;5.282;2023-10-31T01:45:34;12.75;;;10.68;;
27666;SDS011;15074;50.940;5.282;2023-10-31T01:48:00;13.95;;;11.32;;
27666;SDS011;15074;50.940;5.282;2023-10-31T01:50:26;16.60;;;10.88;;
27666;SDS011;15074;50.940;5.282;2023-10-31T01:52:52;10.88;;;9.60;;
27666;SDS011;15074;50.940;5.282;2023-10-31T01:55:18;11.63;;;9.02;;
27666;SDS011;15074;50.940;5.282;2023-10-31T01:57:44;10.50;;;8.60;;
27666;SDS011;15074;50.940;5.282;2023-10-31T02:00:12;16.13;;;9.07;;
27666;SDS011;15074;50.940;5.282;2023-10-31T02:02:40;10.13;;;7.72;;
27666;SDS011;15074;50.940;5.282;2023-10-31T02:05:09;8.07;;;7.28;;
27666;SDS011;15074;50.940;5.282;2023-10-31T02:07:35;9.82;;;7.28;;
27666;SDS011;15074;50.940;5.282;2023-10-31T02:10:00;6.78;;;5.75;;
27666;SDS011;15074;50.940;5.282;2023-10-31T02:12:35;7.10;;;5.65;;
27666;SDS011;15074;50.940;5.282;2023-10-31T02:15:03;5.80;;;4.60;;
27666;SDS011;15074;50.940;5.282;2023-10-31T02:17:29;11.40;;;4.00;;
27666;SDS011;15074;50.940;5.282;2023-10-31T02:19:55;5.63;;;4.43;;
27666;SDS011;15074;50.940;5.282;2023-10-31T02:22:21;4.65;;;3.90;;
27666;SDS011;15074;50.940;5.282;2023-10-31T02:24:47;5.20;;;4.10;;
27666;SDS011;15074;50.940;5.282;2023-10-31T02:27:13;5.28;;;4.78;;
27666;SDS011;15074;50.940;5.282;2023-10-31T02:29:39;5.45;;;4.25;;
27666;SDS011;15074;50.940;5.282;2023-10-31T02:32:06;4.57;;;4.07;;
27666;SDS011;15074;50.940;5.282;2023-10-31T02:34:32;5.57;;;4.30;;
27666;SDS011;15074;50.940;5.282;2023-10-31T02:36:59;5.50;;;4.60;;
27666;SDS011;15074;50.940;5.282;2023-10-31T02:39:25;5.75;;;5.20;;
27666;SDS011;15074;50.940;5.282;2023-10-31T02:41:50;4.85;;;4.38;;
27666;SDS011;15074;50.940;5.282;2023-10-31T02:44:16;5.80;;;5.20;;
27666;SDS011;15074;50.940;5.282;2023-10-31T02:46:42;6.32;;;5.70;;
27666;SDS011;15074;50.940;5.282;2023-10-31T02:49:07;7.22;;;5.85;;
27666;SDS011;15074;50.940;5.282;2023-10-31T02:51:34;7.43;;;6.70;;
27666;SDS011;15074;50.940;5.282;2023-10-31T02:54:00;6.80;;;6.05;;
27666;SDS011;15074;50.940;5.282;2023-10-31T02:56:26;7.35;;;6.68;;
27666;SDS011;15074;50.940;5.282;2023-10-31T02:58:52;7.63;;;6.80;;
27666;SDS011;15074;50.940;5.282;2023-10-31T03:01:17;9.07;;;7.05;;
27666;SDS011;15074;50.940;5.282;2023-10-31T03:03:45;8.65;;;7.00;;
27666;SDS011;15074;50.940;5.282;2023-10-31T03:06:10;6.97;;;6.28;;
27666;SDS011;15074;50.940;5.282;2023-10-31T03:08:36;9.50;;;7.38;;
27666;SDS011;15074;50.940;5.282;2023-10-31T03:11:02;7.40;;;6.80;;
27666;SDS011;15074;50.940;5.282;2023-10-31T03:13:27;8.25;;;7.40;;
27666;SDS011;15074;50.940;5.282;2023-10-31T03:15:53;10.18;;;7.63;;
27666;SDS011;15074;50.940;5.282;2023-10-31T03:18:18;8.45;;;7.63;;
27666;SDS011;15074;50.940;5.282;2023-10-31T03:20:45;6.95;;;6.32;;
27666;SDS011;15074;50.940;5.282;2023-10-31T03:23:11;7.50;;;6.80;;
27666;SDS011;15074;50.940;5.282;2023-10-31T03:25:37;7.85;;;7.15;;
27666;SDS011;15074;50.940;5.282;2023-10-31T03:28:03;8.02;;;6.70;;
27666;SDS011;15074;50.940;5.282;2023-10-31T03:30:28;8.02;;;6.97;;
27666;SDS011;15074;50.940;5.282;2023-10-31T03:32:54;7.43;;;6.75;;
27666;SDS011;15074;50.940;5.282;2023-10-31T03:35:20;8.18;;;7.47;;
27666;SDS011;15074;50.940;5.282;2023-10-31T03:37:45;8.23;;;7.43;;
27666;SDS011;15074;50.940;5.282;2023-10-31T03:40:11;9.10;;;8.20;;
27666;SDS011;15074;50.940;5.282;2023-10-31T03:42:37;8.75;;;7.95;;
27666;SDS011;15074;50.940;5.282;2023-10-31T03:45:03;8.40;;;7.13;;
27666;SDS011;15074;50.940;5.282;2023-10-31T03:47:28;8.98;;;8.18;;
27666;SDS011;15074;50.940;5.282;2023-10-31T03:49:54;8.88;;;7.97;;
27666;SDS011;15074;50.940;5.282;2023-10-31T03:52:20;9.23;;;8.32;;
27666;SDS011;15074;50.940;5.282;2023-10-31T03:54:45;9.93;;;8.15;;
27666;SDS011;15074;50.940;5.282;2023-10-31T03:57:11;9.02;;;8.23;;
27666;SDS011;15074;50.940;5.282;2023-10-31T03:59:37;15.07;;;8.00;;
27666;SDS011;15074;50.940;5.282;2023-10-31T04:02:03;8.43;;;7.30;;
27666;SDS011;15074;50.940;5.282;2023-10-31T04:04:28;8.75;;;7.68;;
27666;SDS011;15074;50.940;5.282;2023-10-31T04:06:54;9.15;;;7.57;;
27666;SDS011;15074;50.940;5.282;2023-10-31T04:09:20;8.00;;;7.20;;
27666;SDS011;15074;50.940;5.282;2023-10-31T04:11:45;7.57;;;6.88;;
27666;SDS011;15074;50.940;5.282;2023-10-31T04:14:11;10.10;;;7.38;;
27666;SDS011;15074;50.940;5.282;2023-10-31T04:16:38;7.63;;;6.90;;
27666;SDS011;15074;50.940;5.282;2023-10-31T04:19:11;7.93;;;7.22;;
27666;SDS011;15074;50.940;5.282;2023-10-31T04:21:38;6.43;;;5.82;;
27666;SDS011;15074;50.940;5.282;2023-10-31T04:24:04;6.55;;;5.90;;
27666;SDS011;15074;50.940;5.282;2023-10-31T04:26:30;6.15;;;5.65;;
27666;SDS011;15074;50.940;5.282;2023-10-31T04:28:55;8.13;;;7.43;;
27666;SDS011;15074;50.940;5.282;2023-10-31T04:31:21;6.57;;;5.82;;
27666;SDS011;15074;50.940;5.282;2023-10-31T04:33:47;6.68;;;6.00;;
27666;SDS011;15074;50.940;5.282;2023-10-31T04:36:12;6.65;;;6.05;;
27666;SDS011;15074;50.940;5.282;2023-10-31T04:38:38;6.28;;;5.68;;
27666;SDS011;15074;50.940;5.282;2023-10-31T04:41:04;6.35;;;5.68;;
27666;SDS011;15074;50.940;5.282;2023-10-31T04:43:29;7.78;;;5.88;;
27666;SDS011;15074;50.940;5.282;2023-10-31T04:45:55;8.93;;;5.07;;
27666;SDS011;15074;50.940;5.282;2023-10-31T04:48:21;7.35;;;6.10;;
27666;SDS011;15074;50.940;5.282;2023-10-31T04:50:46;6.85;;;6.20;;
27666;SDS011;15074;50.940;5.282;2023-10-31T04:53:12;6.47;;;5.88;;
27666;SDS011;15074;50.940;5.282;2023-10-31T04:55:37;6.40;;;5.80;;
27666;SDS011;15074;50.940;5.282;2023-10-31T04:58:03;6.00;;;5.50;;
27666;SDS011;15074;50.940;5.282;2023-10-31T05:00:29;6.68;;;5.97;;
27666;SDS011;15074;50.940;5.282;2023-10-31T05:02:55;6.57;;;5.97;;
27666;SDS011;15074;50.940;5.282;2023-10-31T05:05:22;5.90;;;5.30;;
27666;SDS011;15074;50.940;5.282;2023-10-31T05:07:47;6.95;;;5.75;;
27666;SDS011;15074;50.940;5.282;2023-10-31T05:10:13;6.60;;;5.82;;
27666;SDS011;15074;50.940;5.282;2023-10-31T05:12:38;5.82;;;5.32;;
27666;SDS011;15074;50.940;5.282;2023-10-31T05:15:04;6.15;;;5.55;;
27666;SDS011;15074;50.940;5.282;2023-10-31T05:17:30;7.18;;;5.72;;
27666;SDS011;15074;50.940;5.282;2023-10-31T05:19:56;6.30;;;5.75;;
27666;SDS011;15074;50.940;5.282;2023-10-31T05:22:22;12.80;;;6.65;;
27666;SDS011;15074;50.940;5.282;2023-10-31T05:24:47;8.45;;;5.75;;
27666;SDS011;15074;50.940;5.282;2023-10-31T05:27:13;7.75;;;6.32;;
27666;SDS011;15074;50.940;5.282;2023-10-31T05:29:39;8.45;;;7.55;;
27666;SDS011;15074;50.940;5.282;2023-10-31T05:32:05;8.57;;;7.80;;
27666;SDS011;15074;50.940;5.282;2023-10-31T05:34:30;9.57;;;7.47;;
27666;SDS011;15074;50.940;5.282;2023-10-31T05:36:56;9.23;;;8.32;;
27666;SDS011;15074;50.940;5.282;2023-10-31T05:39:22;8.35;;;7.55;;
27666;SDS011;15074;50.940;5.282;2023-10-31T05:41:47;9.50;;;8.60;;
27666;SDS011;15074;50.940;5.282;2023-10-31T05:44:13;8.95;;;8.10;;
27666;SDS011;15074;50.940;5.282;2023-10-31T05:46:39;9.43;;;8.48;;
27666;SDS011;15074;50.940;5.282;2023-10-31T05:49:08;10.02;;;8.27;;
27666;SDS011;15074;50.940;5.282;2023-10-31T05:51:35;9.82;;;8.82;;
27666;SDS011;15074;50.940;5.282;2023-10-31T05:54:00;9.52;;;8.63;;
27666;SDS011;15074;50.940;5.282;2023-10-31T05:56:26;13.60;;;8.75;;
27666;SDS011;15074;50.940;5.282;2023-10-31T05:58:52;9.50;;;8.60;;
27666;SDS011;15074;50.940;5.282;2023-10-31T06:01:17;12.98;;;9.30;;
27666;SDS011;15074;50.940;5.282;2023-10-31T06:03:43;9.15;;;7.78;;
27666;SDS011;15074;50.940;5.282;2023-10-31T06:06:10;10.05;;;9.05;;
27666;SDS011;15074;50.940;5.282;2023-10-31T06:08:37;9.27;;;8.38;;
27666;SDS011;15074;50.940;5.282;2023-10-31T06:11:03;9.93;;;8.93;;
27666;SDS011;15074;50.940;5.282;2023-10-31T06:13:29;11.18;;;9.07;;
27666;SDS011;15074;50.940;5.282;2023-10-31T06:15:56;9.67;;;8.17;;
27666;SDS011;15074;50.940;5.282;2023-10-31T06:18:23;10.27;;;9.38;;
27666;SDS011;15074;50.940;5.282;2023-10-31T06:20:49;9.73;;;8.80;;
27666;SDS011;15074;50.940;5.282;2023-10-31T06:23:14;16.65;;;8.77;;
27666;SDS011;15074;50.940;5.282;2023-10-31T06:25:40;11.07;;;9.65;;
27666;SDS011;15074;50.940;5.282;2023-10-31T06:28:06;10.35;;;9.35;;
27666;SDS011;15074;50.940;5.282;2023-10-31T06:30:31;9.77;;;8.85;;
27666;SDS011;15074;50.940;5.282;2023-10-31T06:32:58;11.40;;;10.23;;
27666;SDS011;15074;50.940;5.282;2023-10-31T06:35:24;10.97;;;9.97;;
27666;SDS011;15074;50.940;5.282;2023-10-31T06:37:51;9.35;;;8.43;;
27666;SDS011;15074;50.940;5.282;2023-10-31T06:40:21;10.23;;;9.23;;
27666;SDS011;15074;50.940;5.282;2023-10-31T06:42:46;9.95;;;8.77;;
27666;SDS011;15074;50.940;5.282;2023-10-31T06:45:12;11.18;;;9.95;;
27666;SDS011;15074;50.940;5.282;2023-10-31T06:47:38;12.05;;;10.82;;
27666;SDS011;15074;50.940;5.282;2023-10-31T06:50:03;10.90;;;9.90;;
27666;SDS011;15074;50.940;5.282;2023-10-31T06:52:29;12.35;;;9.55;;
27666;SDS011;15074;50.940;5.282;2023-10-31T06:54:55;9.95;;;8.88;;
27666;SDS011;15074;50.940;5.282;2023-10-31T06:57:21;9.85;;;8.95;;
27666;SDS011;15074;50.940;5.282;2023-10-31T06:59:46;9.73;;;8.82;;
27666;SDS011;15074;50.940;5.282;2023-10-31T07:02:12;10.48;;;9.38;;
27666;SDS011;15074;50.940;5.282;2023-10-31T07:04:39;9.98;;;8.98;;
27666;SDS011;15074;50.940;5.282;2023-10-31T07:07:04;10.48;;;9.43;;
27666;SDS011;15074;50.940;5.282;2023-10-31T07:09:30;12.00;;;8.90;;
27666;SDS011;15074;50.940;5.282;2023-10-31T07:11:56;10.63;;;9.63;;
27666;SDS011;15074;50.940;5.282;2023-10-31T07:14:21;9.98;;;9.05;;
27666;SDS011;15074;50.940;5.282;2023-10-31T07:16:47;10.55;;;9.55;;
27666;SDS011;15074;50.940;5.282;2023-10-31T07:19:13;10.32;;;9.32;;
27666;SDS011;15074;50.940;5.282;2023-10-31T07:21:39;12.23;;;10.18;;
27666;SDS011;15074;50.940;5.282;2023-10-31T07:24:05;11.27;;;10.18;;
27666;SDS011;15074;50.940;5.282;2023-10-31T07:26:33;10.52;;;9.63;;
27666;SDS011;15074;50.940;5.282;2023-10-31T07:28:59;9.90;;;9.00;;
27666;SDS011;15074;50.940;5.282;2023-10-31T07:31:25;15.68;;;8.10;;
27666;SDS011;15074;50.940;5.282;2023-10-31T07:33:51;9.13;;;7.00;;
27666;SDS011;15074;50.940;5.282;2023-10-31T07:36:16;7.68;;;7.07;;
27666;SDS011;15074;50.940;5.282;2023-10-31T07:38:42;7.30;;;6.70;;
27666;SDS011;15074;50.940;5.282;2023-10-31T07:41:07;6.10;;;5.47;;
27666;SDS011;15074;50.940;5.282;2023-10-31T07:43:33;5.72;;;5.15;;
27666;SDS011;15074;50.940;5.282;2023-10-31T07:45:59;5.30;;;4.80;;
27666;SDS011;15074;50.940;5.282;2023-10-31T07:48:24;5.03;;;4.60;;
27666;SDS011;15074;50.940;5.282;2023-10-31T07:50:50;4.72;;;4.32;;
27666;SDS011;15074;50.940;5.282;2023-10-31T07:53:16;4.53;;;4.13;;
27666;SDS011;15074;50.940;5.282;2023-10-31T07:55:42;4.50;;;4.05;;
27666;SDS011;15074;50.940;5.282;2023-10-31T07:58:08;3.95;;;3.65;;
27666;SDS011;15074;50.940;5.282;2023-10-31T08:00:34;3.80;;;3.40;;
27666;SDS011;15074;50.940;5.282;2023-10-31T08:03:01;4.05;;;3.55;;
27666;SDS011;15074;50.940;5.282;2023-10-31T08:05:27;3.70;;;3.30;;
27666;SDS011;15074;50.940;5.282;2023-10-31T08:07:52;5.05;;;3.97;;
27666;SDS011;15074;50.940;5.282;2023-10-31T08:10:18;4.32;;;3.78;;
27666;SDS011;15074;50.940;5.282;2023-10-31T08:12:44;4.03;;;3.60;;
27666;SDS011;15074;50.940;5.282;2023-10-31T08:15:10;4.50;;;3.38;;
27666;SDS011;15074;50.940;5.282;2023-10-31T08:17:35;4.78;;;3.55;;
27666;SDS011;15074;50.940;5.282;2023-10-31T08:20:01;3.80;;;3.50;;
27666;SDS011;15074;50.940;5.282;2023-10-31T08:22:30;4.03;;;3.63;;
27666;SDS011;15074;50.940;5.282;2023-10-31T08:24:57;3.47;;;3.17;;
27666;SDS011;15074;50.940;5.282;2023-10-31T08:27:22;4.18;;;3.78;;
27666;SDS011;15074;50.940;5.282;2023-10-31T08:29:48;4.45;;;3.72;;
27666;SDS011;15074;50.940;5.282;2023-10-31T08:32:14;5.60;;;5.00;;
27666;SDS011;15074;50.940;5.282;2023-10-31T08:34:41;7.13;;;4.72;;
27666;SDS011;15074;50.940;5.282;2023-10-31T08:37:06;5.38;;;4.72;;
27666;SDS011;15074;50.940;5.282;2023-10-31T08:39:33;5.85;;;4.85;;
27666;SDS011;15074;50.940;5.282;2023-10-31T08:41:59;5.97;;;4.43;;
27666;SDS011;15074;50.940;5.282;2023-10-31T08:44:25;4.18;;;3.78;;
27666;SDS011;15074;50.940;5.282;2023-10-31T08:46:50;13.02;;;3.75;;
27666;SDS011;15074;50.940;5.282;2023-10-31T08:49:16;5.45;;;3.95;;
27666;SDS011;15074;50.940;5.282;2023-10-31T08:51:43;5.32;;;3.95;;
27666;SDS011;15074;50.940;5.282;2023-10-31T08:54:09;5.07;;;4.57;;
27666;SDS011;15074;50.940;5.282;2023-10-31T08:56:35;4.22;;;3.83;;
27666;SDS011;15074;50.940;5.282;2023-10-31T08:59:01;4.80;;;4.32;;
27666;SDS011;15074;50.940;5.282;2023-10-31T09:01:27;4.05;;;3.45;;
27666;SDS011;15074;50.940;5.282;2023-10-31T09:03:54;3.80;;;3.38;;
27666;SDS011;15074;50.940;5.282;2023-10-31T09:06:20;4.65;;;3.22;;
27666;SDS011;15074;50.940;5.282;2023-10-31T09:08:45;4.18;;;3.58;;
27666;SDS011;15074;50.940;5.282;2023-10-31T09:11:11;4.03;;;3.65;;
27666;SDS011;15074;50.940;5.282;2023-10-31T09:13:37;4.78;;;3.65;;
27666;SDS011;15074;50.940;5.282;2023-10-31T09:16:02;5.82;;;3.70;;
27666;SDS011;15074;50.940;5.282;2023-10-31T09:18:28;5.05;;;4.20;;
27666;SDS011;15074;50.940;5.282;2023-10-31T09:20:54;4.43;;;3.75;;
27666;SDS011;15074;50.940;5.282;2023-10-31T09:23:20;5.88;;;4.25;;
27666;SDS011;15074;50.940;5.282;2023-10-31T09:25:46;5.15;;;4.57;;
27666;SDS011;15074;50.940;5.282;2023-10-31T09:28:12;5.32;;;3.85;;
27666;SDS011;15074;50.940;5.282;2023-10-31T09:30:38;5.10;;;4.07;;
27666;SDS011;15074;50.940;5.282;2023-10-31T09:33:03;4.50;;;3.72;;
27666;SDS011;15074;50.940;5.282;2023-10-31T09:35:29;7.28;;;4.60;;
27666;SDS011;15074;50.940;5.282;2023-10-31T09:37:55;5.50;;;3.53;;
27666;SDS011;15074;50.940;5.282;2023-10-31T09:40:21;4.88;;;3.30;;
27666;SDS011;15074;50.940;5.282;2023-10-31T09:42:47;3.75;;;2.90;;
27666;SDS011;15074;50.940;5.282;2023-10-31T09:45:14;4.30;;;2.75;;
27666;SDS011;15074;50.940;5.282;2023-10-31T09:47:40;2.70;;;2.08;;
27666;SDS011;15074;50.940;5.282;2023-10-31T09:50:09;3.83;;;2.15;;
27666;SDS011;15074;50.940;5.282;2023-10-31T09:52:36;4.13;;;2.72;;
27666;SDS011;15074;50.940;5.282;2023-10-31T09:55:03;4.20;;;2.10;;
27666;SDS011;15074;50.940;5.282;2023-10-31T09:57:30;3.67;;;2.23;;
27666;SDS011;15074;50.940;5.282;2023-10-31T09:59:56;4.88;;;2.33;;
27666;SDS011;15074;50.940;5.282;2023-10-31T10:02:21;2.88;;;2.58;;
27666;SDS011;15074;50.940;5.282;2023-10-31T10:04:48;2.28;;;1.75;;
27666;SDS011;15074;50.940;5.282;2023-10-31T10:07:18;3.03;;;2.00;;
27666;SDS011;15074;50.940;5.282;2023-10-31T10:09:44;2.33;;;1.90;;
27666;SDS011;15074;50.940;5.282;2023-10-31T10:12:11;2.60;;;1.83;;
27666;SDS011;15074;50.940;5.282;2023-10-31T10:14:38;2.20;;;1.80;;
27666;SDS011;15074;50.940;5.282;2023-10-31T10:17:22;3.25;;;1.50;;
27666;SDS011;15074;50.940;5.282;2023-10-31T10:20:05;3.95;;;1.80;;
27666;SDS011;15074;50.940;5.282;2023-10-31T10:22:33;4.68;;;1.90;;
27666;SDS011;15074;50.940;5.282;2023-10-31T10:25:07;5.43;;;1.83;;
27666;SDS011;15074;50.940;5.282;2023-10-31T10:27:34;2.97;;;1.60;;
27666;SDS011;15074;50.940;5.282;2023-10-31T10:30:01;3.38;;;1.70;;
27666;SDS011;15074;50.940;5.282;2023-10-31T10:32:28;3.33;;;1.70;;
27666;SDS011;15074;50.940;5.282;2023-10-31T10:34:54;1.90;;;1.45;;
27666;SDS011;15074;50.940;5.282;2023-10-31T10:37:20;3.22;;;1.83;;
27666;SDS011;15074;50.940;5.282;2023-10-31T10:39:47;3.00;;;1.58;;
27666;SDS011;15074;50.940;5.282;2023-10-31T10:42:18;1.80;;;1.38;;
27666;SDS011;15074;50.940;5.282;2023-10-31T10:44:46;2.83;;;1.20;;
27666;SDS011;15074;50.940;5.282;2023-10-31T10:47:15;1.75;;;1.23;;
27666;SDS011;15074;50.940;5.282;2023-10-31T10:49:43;4.22;;;1.30;;
27666;SDS011;15074;50.940;5.282;2023-10-31T10:55:12;3.53;;;1.20;;
27666;SDS011;15074;50.940;5.282;2023-10-31T10:57:48;3.63;;;1.50;;
27666;SDS011;15074;50.940;5.282;2023-10-31T11:00:25;1.98;;;1.20;;
27666;SDS011;15074;50.940;5.282;2023-10-31T11:02:52;3.15;;;1.33;;
27666;SDS011;15074;50.940;5.282;2023-10-31T11:05:18;3.72;;;1.50;;
27666;SDS011;15074;50.940;5.282;2023-10-31T11:07:46;2.70;;;1.40;;
27666;SDS011;15074;50.940;5.282;2023-10-31T11:10:12;2.20;;;1.48;;
27666;SDS011;15074;50.940;5.282;2023-10-31T11:12:39;2.55;;;1.33;;
27666;SDS011;15074;50.940;5.282;2023-10-31T11:15:06;1.95;;;1.25;;
27666;SDS011;15074;50.940;5.282;2023-10-31T11:20:00;3.72;;;2.08;;
27666;SDS011;15074;50.940;5.282;2023-10-31T11:22:38;2.25;;;1.48;;
27666;SDS011;15074;50.940;5.282;2023-10-31T11:25:06;4.40;;;2.22;;
27666;SDS011;15074;50.940;5.282;2023-10-31T11:27:33;3.55;;;1.60;;
27666;SDS011;15074;50.940;5.282;2023-10-31T11:32:26;3.65;;;1.33;;
27666;SDS011;15074;50.940;5.282;2023-10-31T11:34:52;2.38;;;1.58;;
27666;SDS011;15074;50.940;5.282;2023-10-31T11:37:18;4.10;;;1.38;;
27666;SDS011;15074;50.940;5.282;2023-10-31T11:42:43;3.45;;;1.40;;
27666;SDS011;15074;50.940;5.282;2023-10-31T11:45:13;3.03;;;1.50;;
27666;SDS011;15074;50.940;5.282;2023-10-31T11:48:07;4.18;;;1.70;;
27666;SDS011;15074;50.940;5.282;2023-10-31T11:50:35;2.63;;;1.67;;
27666;SDS011;15074;50.940;5.282;2023-10-31T11:53:05;2.58;;;1.60;;
27666;SDS011;15074;50.940;5.282;2023-10-31T11:55:35;4.95;;;1.92;;
27666;SDS011;15074;50.940;5.282;2023-10-31T11:58:26;3.75;;;1.88;;
27666;SDS011;15074;50.940;5.282;2023-10-31T12:00:52;7.00;;;1.50;;
27666;SDS011;15074;50.940;5.282;2023-10-31T12:03:26;2.30;;;1.27;;
27666;SDS011;15074;50.940;5.282;2023-10-31T12:05:55;3.33;;;1.33;;
27666;SDS011;15074;50.940;5.282;2023-10-31T12:11:05;4.25;;;1.35;;
27666;SDS011;15074;50.940;5.282;2023-10-31T12:13:37;3.00;;;1.25;;
27666;SDS011;15074;50.940;5.282;2023-10-31T12:16:26;3.53;;;1.73;;
27666;SDS011;15074;50.940;5.282;2023-10-31T12:18:54;3.50;;;1.38;;
27666;SDS011;15074;50.940;5.282;2023-10-31T12:21:33;3.25;;;1.45;;
27666;SDS011;15074;50.940;5.282;2023-10-31T12:24:06;4.32;;;1.27;;
27666;SDS011;15074;50.940;5.282;2023-10-31T12:26:33;4.63;;;1.67;;
27666;SDS011;15074;50.940;5.282;2023-10-31T12:31:52;3.63;;;1.35;;
27666;SDS011;15074;50.940;5.282;2023-10-31T12:34:20;3.38;;;1.30;;
27666;SDS011;15074;50.940;5.282;2023-10-31T12:36:47;4.68;;;1.60;;
27666;SDS011;15074;50.940;5.282;2023-10-31T12:39:15;4.75;;;1.77;;
27666;SDS011;15074;50.940;5.282;2023-10-31T12:41:43;2.10;;;1.58;;
27666;SDS011;15074;50.940;5.282;2023-10-31T12:44:09;3.88;;;1.88;;
27666;SDS011;15074;50.940;5.282;2023-10-31T12:46:41;9.63;;;2.20;;
27666;SDS011;15074;50.940;5.282;2023-10-31T12:49:19;6.63;;;2.28;;
27666;SDS011;15074;50.940;5.282;2023-10-31T12:52:01;4.72;;;2.50;;
27666;SDS011;15074;50.940;5.282;2023-10-31T12:54:35;4.65;;;2.70;;
27666;SDS011;15074;50.940;5.282;2023-10-31T12:57:08;5.55;;;3.25;;
27666;SDS011;15074;50.940;5.282;2023-10-31T12:59:38;3.83;;;2.53;;
27666;SDS011;15074;50.940;5.282;2023-10-31T13:02:04;3.65;;;2.47;;
27666;SDS011;15074;50.940;5.282;2023-10-31T13:04:31;4.25;;;3.05;;
27666;SDS011;15074;50.940;5.282;2023-10-31T13:07:04;4.47;;;2.58;;
27666;SDS011;15074;50.940;5.282;2023-10-31T13:09:31;4.10;;;2.40;;
27666;SDS011;15074;50.940;5.282;2023-10-31T13:12:00;3.40;;;1.85;;
27666;SDS011;15074;50.940;5.282;2023-10-31T13:14:27;7.88;;;2.00;;
27666;SDS011;15074;50.940;5.282;2023-10-31T13:16:53;3.75;;;2.03;;
27666;SDS011;15074;50.940;5.282;2023-10-31T13:19:18;3.50;;;1.60;;
27666;SDS011;15074;50.940;5.282;2023-10-31T13:21:44;2.65;;;1.40;;
27666;SDS011;15074;50.940;5.282;2023-10-31T13:24:10;2.10;;;1.45;;
27666;SDS011;15074;50.940;5.282;2023-10-31T13:26:35;2.95;;;1.40;;
27666;SDS011;15074;50.940;5.282;2023-10-31T13:29:01;3.20;;;1.60;;
27666;SDS011;15074;50.940;5.282;2023-10-31T13:31:27;6.03;;;1.45;;
27666;SDS011;15074;50.940;5.282;2023-10-31T13:33:52;3.65;;;1.58;;
27666;SDS011;15074;50.940;5.282;2023-10-31T13:36:18;4.38;;;1.80;;
27666;SDS011;15074;50.940;5.282;2023-10-31T13:38:45;4.75;;;2.33;;
27666;SDS011;15074;50.940;5.282;2023-10-31T13:41:11;3.80;;;1.55;;
27666;SDS011;15074;50.940;5.282;2023-10-31T13:43:37;4.15;;;1.88;;
27666;SDS011;15074;50.940;5.282;2023-10-31T13:46:03;2.55;;;1.58;;
27666;SDS011;15074;50.940;5.282;2023-10-31T13:48:29;3.15;;;1.60;;
27666;SDS011;15074;50.940;5.282;2023-10-31T13:50:55;3.22;;;1.65;;
27666;SDS011;15074;50.940;5.282;2023-10-31T13:53:21;4.53;;;1.73;;
27666;SDS011;15074;50.940;5.282;2023-10-31T13:55:47;3.08;;;1.60;;
27666;SDS011;15074;50.940;5.282;2023-10-31T13:58:13;1.80;;;1.50;;
27666;SDS011;15074;50.940;5.282;2023-10-31T14:00:39;9.40;;;2.30;;
27666;SDS011;15074;50.940;5.282;2023-10-31T14:03:05;2.90;;;1.75;;
27666;SDS011;15074;50.940;5.282;2023-10-31T14:05:31;2.63;;;1.55;;
27666;SDS011;15074;50.940;5.282;2023-10-31T14:07:56;2.22;;;1.63;;
27666;SDS011;15074;50.940;5.282;2023-10-31T14:10:23;5.60;;;2.47;;
27666;SDS011;15074;50.940;5.282;2023-10-31T14:12:49;3.60;;;1.77;;
27666;SDS011;15074;50.940;5.282;2023-10-31T14:15:15;5.13;;;1.42;;
27666;SDS011;15074;50.940;5.282;2023-10-31T14:17:41;3.78;;;1.75;;
27666;SDS011;15074;50.940;5.282;2023-10-31T14:20:07;2.95;;;1.70;;
27666;SDS011;15074;50.940;5.282;2023-10-31T14:22:33;2.72;;;1.40;;
27666;SDS011;15074;50.940;5.282;2023-10-31T14:24:58;3.72;;;2.10;;
27666;SDS011;15074;50.940;5.282;2023-10-31T14:27:24;5.10;;;2.30;;
27666;SDS011;15074;50.940;5.282;2023-10-31T14:29:50;2.30;;;1.80;;
27666;SDS011;15074;50.940;5.282;2023-10-31T14:32:18;2.90;;;1.90;;
27666;SDS011;15074;50.940;5.282;2023-10-31T14:34:43;2.55;;;1.92;;
27666;SDS011;15074;50.940;5.282;2023-10-31T14:37:09;5.25;;;1.92;;
27666;SDS011;15074;50.940;5.282;2023-10-31T14:39:35;5.25;;;2.17;;
27666;SDS011;15074;50.940;5.282;2023-10-31T14:42:01;3.67;;;1.80;;
27666;SDS011;15074;50.940;5.282;2023-10-31T14:44:26;3.92;;;2.03;;
27666;SDS011;15074;50.940;5.282;2023-10-31T14:46:52;2.58;;;2.00;;
27666;SDS011;15074;50.940;5.282;2023-10-31T14:49:18;4.75;;;1.60;;
27666;SDS011;15074;50.940;5.282;2023-10-31T14:51:44;3.22;;;1.77;;
27666;SDS011;15074;50.940;5.282;2023-10-31T14:54:10;3.85;;;2.15;;
27666;SDS011;15074;50.940;5.282;2023-10-31T14:56:35;3.45;;;1.83;;